createdAt,value
2019-04-04T00:00:59.662Z,1003.52
2019-04-04T00:01:59.330Z,1003.47
2019-04-04T00:02:59.379Z,1003.48
2019-04-04T00:03:59.381Z,1003.46
2019-04-04T00:04:59.401Z,1003.46
2019-04-04T00:05:59.541Z,1003.44
2019-04-04T00:06:59.471Z,1003.42
2019-04-04T00:08:00.724Z,1003.45
2019-04-04T00:09:02.759Z,1003.41
2019-04-04T00:09:59.576Z,1003.36
2019-04-04T00:10:59.566Z,1003.32
2019-04-04T00:11:59.606Z,1003.31
2019-04-04T00:12:59.604Z,1003.23
2019-04-04T00:13:59.517Z,1003.16
2019-04-04T00:14:59.646Z,1003.07
2019-04-04T00:15:59.319Z,1003.04
2019-04-04T00:16:59.355Z,1003.01
2019-04-04T00:17:59.310Z,1003.04
2019-04-04T00:18:59.321Z,1002.99
2019-04-04T00:20:01.553Z,1002.98
2019-04-04T00:21:02.678Z,1003.05
2019-04-04T00:21:59.392Z,1003.1
2019-04-04T00:22:59.373Z,1003.06
2019-04-04T00:23:59.418Z,1003
2019-04-04T00:24:59.429Z,1002.99
2019-04-04T00:25:59.415Z,1003.04
2019-04-04T00:26:59.439Z,1003.14
2019-04-04T00:27:59.551Z,1003.19
2019-04-04T00:29:01.777Z,1003.17
2019-04-04T00:29:59.454Z,1003.14
2019-04-04T00:30:59.523Z,1003.1
2019-04-04T00:31:59.506Z,1003.04
2019-04-04T00:32:59.304Z,1003.06
2019-04-04T00:33:59.309Z,1003.06
2019-04-04T00:35:00.594Z,1003.11
2019-04-04T00:36:03.450Z,1003.17
2019-04-04T00:36:59.348Z,1003.17
2019-04-04T00:37:59.420Z,1003.21
2019-04-04T00:38:59.394Z,1003.22
2019-04-04T00:39:59.406Z,1003.23
2019-04-04T00:40:59.429Z,1003.18
2019-04-04T00:41:59.428Z,1003.19
2019-04-04T00:42:59.472Z,1003.16
2019-04-04T00:43:59.755Z,1003.13
2019-04-04T00:44:59.502Z,1003.09
2019-04-04T00:46:01.224Z,1003.08
2019-04-04T00:47:02.316Z,1003.05
2019-04-04T00:48:03.758Z,1003.08
2019-04-04T00:48:59.526Z,1003.06
2019-04-04T00:49:59.374Z,1003.08
2019-04-04T00:50:59.270Z,1003.13
2019-04-04T00:51:59.315Z,1003.12
2019-04-04T00:52:59.272Z,1003.1
2019-04-04T00:53:59.422Z,1003.05
2019-04-04T00:54:59.354Z,1003.03
2019-04-04T00:55:59.357Z,1003
2019-04-04T00:56:59.367Z,1002.98
2019-04-04T00:57:59.390Z,1002.89
2019-04-04T00:58:59.488Z,1002.81
2019-04-04T00:59:59.417Z,1002.75
2019-04-04T01:00:59.413Z,1002.73
2019-04-04T01:01:59.434Z,1002.69
2019-04-04T01:02:59.431Z,1002.64
2019-04-04T01:04:01.058Z,1002.56
2019-04-04T01:05:02.449Z,1002.51
2019-04-04T01:06:03.833Z,1002.51
2019-04-04T01:06:59.505Z,1002.47
2019-04-04T01:07:59.372Z,1002.44
2019-04-04T01:08:59.344Z,1002.47
2019-04-04T01:09:59.323Z,1002.52
2019-04-04T01:10:59.400Z,1002.56
2019-04-04T01:11:59.350Z,1002.53
2019-04-04T01:12:59.370Z,1002.52
2019-04-04T01:13:59.369Z,1002.47
2019-04-04T01:15:00.795Z,1002.43
2019-04-04T01:16:03.548Z,1002.41
2019-04-04T01:16:59.462Z,1002.33
2019-04-04T01:17:59.427Z,1002.31
2019-04-04T01:18:59.473Z,1002.32
2019-04-04T01:19:59.532Z,1002.36
2019-04-04T01:20:59.273Z,1002.4
2019-04-04T01:21:59.583Z,1002.4
2019-04-04T01:22:59.502Z,1002.4
2019-04-04T01:23:59.549Z,1002.44
2019-04-04T01:25:01.725Z,1002.47
2019-04-04T01:25:59.245Z,1002.44
2019-04-04T01:26:59.371Z,1002.37
2019-04-04T01:27:59.313Z,1002.33
2019-04-04T01:28:59.310Z,1002.26
2019-04-04T01:29:59.327Z,1002.3
2019-04-04T01:30:59.428Z,1002.29
2019-04-04T01:31:59.259Z,1002.33
2019-04-04T01:32:59.350Z,1002.29
2019-04-04T01:33:59.582Z,1002.25
2019-04-04T01:34:59.719Z,1002.23
2019-04-04T01:35:59.404Z,1002.13
2019-04-04T01:36:59.419Z,1002.12
2019-04-04T01:37:59.515Z,1002.05
2019-04-04T01:39:00.883Z,1002.01
2019-04-04T01:40:02.971Z,1001.99
2019-04-04T01:40:59.556Z,1001.98
2019-04-04T01:41:59.516Z,1001.93
2019-04-04T01:42:59.325Z,1001.97
2019-04-04T01:44:05.680Z,1001.97
2019-04-04T01:44:59.372Z,1001.98
2019-04-04T01:45:59.315Z,1001.98
2019-04-04T01:46:59.597Z,1001.97
2019-04-04T01:47:59.463Z,1002.05
2019-04-04T01:48:59.611Z,1002.12
2019-04-04T01:49:59.342Z,1002.17
2019-04-04T01:50:59.296Z,1002.27
2019-04-04T01:51:59.452Z,1002.29
2019-04-04T01:53:00.147Z,1002.31
2019-04-04T01:54:01.877Z,1002.25
2019-04-04T01:55:04.276Z,1002.22
2019-04-04T01:55:59.454Z,1002.24
2019-04-04T01:56:59.495Z,1002.24
2019-04-04T01:57:59.756Z,1002.27
2019-04-04T01:58:59.493Z,1002.31
2019-04-04T01:59:59.516Z,1002.32
2019-04-04T02:00:59.248Z,1002.34
2019-04-04T02:01:59.257Z,1002.3
2019-04-04T02:02:59.237Z,1002.25
2019-04-04T02:03:59.303Z,1002.13
2019-04-04T02:04:59.276Z,1002.03
2019-04-04T02:05:59.285Z,1001.94
2019-04-04T02:06:59.858Z,1001.94
2019-04-04T02:08:01.796Z,1001.93
2019-04-04T02:09:03.654Z,1001.92
2019-04-04T02:09:59.880Z,1001.93
2019-04-04T02:10:59.770Z,1001.95
2019-04-04T02:11:59.546Z,1001.96
2019-04-04T02:12:59.548Z,1001.95
2019-04-04T02:13:59.248Z,1001.97
2019-04-04T02:14:59.437Z,1001.94
2019-04-04T02:15:59.445Z,1001.91
2019-04-04T02:16:59.434Z,1001.89
2019-04-04T02:17:59.522Z,1001.87
2019-04-04T02:18:59.569Z,1001.84
2019-04-04T02:19:59.382Z,1001.83
2019-04-04T02:20:59.531Z,1001.88
2019-04-04T02:22:00.547Z,1001.82
2019-04-04T02:23:02.084Z,1001.82
2019-04-04T02:24:02.194Z,1001.81
2019-04-04T02:25:03.944Z,1001.84
2019-04-04T02:25:59.363Z,1001.82
2019-04-04T02:26:59.362Z,1001.84
2019-04-04T02:27:59.372Z,1001.81
2019-04-04T02:28:59.350Z,1001.78
2019-04-04T02:29:59.491Z,1001.77
2019-04-04T02:30:59.436Z,1001.77
2019-04-04T02:31:59.438Z,1001.78
2019-04-04T02:33:00.975Z,1001.72
2019-04-04T02:33:59.435Z,1001.7
2019-04-04T02:34:59.427Z,1001.71
2019-04-04T02:35:59.485Z,1001.81
2019-04-04T02:36:59.586Z,1001.83
2019-04-04T02:37:59.520Z,1001.81
2019-04-04T02:39:00.893Z,1001.76
2019-04-04T02:39:59.362Z,1001.75
2019-04-04T02:40:59.261Z,1001.78
2019-04-04T02:41:59.338Z,1001.81
2019-04-04T02:42:59.400Z,1001.78
2019-04-04T02:44:00.903Z,1001.7
2019-04-04T02:44:59.331Z,1001.68
2019-04-04T02:45:59.342Z,1001.67
2019-04-04T02:46:59.357Z,1001.61
2019-04-04T02:47:59.432Z,1001.56
2019-04-04T02:48:59.335Z,1001.51
2019-04-04T02:50:02.498Z,1001.44
2019-04-04T02:50:59.506Z,1001.41
2019-04-04T02:51:59.598Z,1001.41
2019-04-04T02:52:59.435Z,1001.41
2019-04-04T02:53:59.817Z,1001.43
2019-04-04T02:54:59.611Z,1001.47
2019-04-04T02:56:03.768Z,1001.56
2019-04-04T02:56:59.306Z,1001.55
2019-04-04T02:57:59.387Z,1001.59
2019-04-04T02:58:59.329Z,1001.55
2019-04-04T02:59:59.314Z,1001.49
2019-04-04T03:01:00.819Z,1001.47
2019-04-04T03:01:59.336Z,1001.49
2019-04-04T03:02:59.327Z,1001.48
2019-04-04T03:03:59.373Z,1001.5
2019-04-04T03:04:59.441Z,1001.45
2019-04-04T03:05:59.501Z,1001.46
2019-04-04T03:06:59.431Z,1001.5
2019-04-04T03:08:04.754Z,1001.53
2019-04-04T03:08:59.422Z,1001.6
2019-04-04T03:09:59.542Z,1001.62
2019-04-04T03:10:59.449Z,1001.57
2019-04-04T03:11:59.516Z,1001.59
2019-04-04T03:12:59.716Z,1001.53
2019-04-04T03:14:04.917Z,1001.5
2019-04-04T03:14:59.380Z,1001.4
2019-04-04T03:15:59.956Z,1001.34
2019-04-04T03:16:59.249Z,1001.33
2019-04-04T03:17:59.271Z,1001.27
2019-04-04T03:18:59.292Z,1001.26
2019-04-04T03:19:59.287Z,1001.26
2019-04-04T03:20:59.297Z,1001.26
2019-04-04T03:21:59.336Z,1001.26
2019-04-04T03:23:01.663Z,1001.27
2019-04-04T03:23:59.357Z,1001.26
2019-04-04T03:24:59.362Z,1001.19
2019-04-04T03:25:59.295Z,1001.11
2019-04-04T03:26:59.474Z,1001.03
2019-04-04T03:27:59.601Z,1000.93
2019-04-04T03:29:07.130Z,1000.83
2019-04-04T03:29:59.456Z,1000.75
2019-04-04T03:31:04.346Z,1000.71
2019-04-04T03:31:59.381Z,1000.65
2019-04-04T03:32:59.286Z,1000.57
2019-04-04T03:33:59.271Z,1000.55
2019-04-04T03:34:59.306Z,1000.53
2019-04-04T03:36:01.484Z,1000.5
2019-04-04T03:36:59.599Z,1000.53
2019-04-04T03:37:59.350Z,1000.5
2019-04-04T03:38:59.368Z,1000.51
2019-04-04T03:39:59.379Z,1000.54
2019-04-04T03:40:59.477Z,1000.59
2019-04-04T03:41:59.313Z,1000.68
2019-04-04T03:42:59.462Z,1000.75
2019-04-04T03:43:59.403Z,1000.85
2019-04-04T03:44:59.625Z,1000.92
2019-04-04T03:46:01.965Z,1000.97
2019-04-04T03:46:59.545Z,1000.98
2019-04-04T03:47:59.453Z,1000.92
2019-04-04T03:48:59.231Z,1000.88
2019-04-04T03:49:59.317Z,1000.8
2019-04-04T03:51:05.380Z,1000.81
2019-04-04T03:51:59.219Z,1000.76
2019-04-04T03:52:59.254Z,1000.71
2019-04-04T03:53:59.428Z,1000.69
2019-04-04T03:54:59.470Z,1000.63
2019-04-04T03:56:01.766Z,1000.59
2019-04-04T03:56:59.253Z,1000.57
2019-04-04T03:57:59.738Z,1000.52
2019-04-04T03:59:01.041Z,1000.46
2019-04-04T03:59:59.334Z,1000.41
2019-04-04T04:00:59.566Z,1000.41
2019-04-04T04:01:59.352Z,1000.41
2019-04-04T04:02:59.490Z,1000.42
2019-04-04T04:03:59.427Z,1000.44
2019-04-04T04:05:02.432Z,1000.43
2019-04-04T04:05:59.670Z,1000.51
2019-04-04T04:06:59.498Z,1000.5
2019-04-04T04:07:59.214Z,1000.44
2019-04-04T04:08:59.273Z,1000.44
2019-04-04T04:10:00.644Z,1000.49
2019-04-04T04:10:59.279Z,1000.44
2019-04-04T04:11:59.388Z,1000.45
2019-04-04T04:12:59.262Z,1000.44
2019-04-04T04:13:59.379Z,1000.39
2019-04-04T04:14:59.313Z,1000.41
2019-04-04T04:16:04.085Z,1000.41
2019-04-04T04:16:59.342Z,1000.46
2019-04-04T04:17:59.379Z,1000.55
2019-04-04T04:18:59.376Z,1000.62
2019-04-04T04:20:05.053Z,1000.62
2019-04-04T04:20:59.577Z,1000.66
2019-04-04T04:21:59.418Z,1000.65
2019-04-04T04:22:59.419Z,1000.63
2019-04-04T04:23:59.557Z,1000.62
2019-04-04T04:25:03.814Z,1000.64
2019-04-04T04:25:59.197Z,1000.6
2019-04-04T04:26:59.226Z,1000.56
2019-04-04T04:28:03.498Z,1000.55
2019-04-04T04:28:59.302Z,1000.54
2019-04-04T04:30:07.705Z,1000.52
2019-04-04T04:30:59.242Z,1000.49
2019-04-04T04:31:59.277Z,1000.46
2019-04-04T04:32:59.319Z,1000.46
2019-04-04T04:34:02.102Z,1000.41
2019-04-04T04:34:59.427Z,1000.42
2019-04-04T04:35:59.304Z,1000.38
2019-04-04T04:36:59.357Z,1000.41
2019-04-04T04:37:59.414Z,1000.41
2019-04-04T04:39:00.436Z,1000.46
2019-04-04T04:39:59.390Z,1000.44
2019-04-04T04:40:59.383Z,1000.41
2019-04-04T04:41:59.942Z,1000.42
2019-04-04T04:43:01.248Z,1000.39
2019-04-04T04:43:59.470Z,1000.41
2019-04-04T04:44:59.197Z,1000.38
2019-04-04T04:45:59.226Z,1000.38
2019-04-04T04:46:59.264Z,1000.39
2019-04-04T04:47:59.270Z,1000.37
2019-04-04T04:49:04.458Z,1000.38
2019-04-04T04:49:59.636Z,1000.42
2019-04-04T04:50:59.434Z,1000.45
2019-04-04T04:51:59.402Z,1000.43
2019-04-04T04:52:59.359Z,1000.41
2019-04-04T04:53:59.352Z,1000.47
2019-04-04T04:54:59.405Z,1000.49
2019-04-04T04:56:00.930Z,1000.49
2019-04-04T04:57:05.203Z,1000.5
2019-04-04T04:57:59.398Z,1000.49
2019-04-04T04:58:59.383Z,1000.49
2019-04-04T04:59:59.388Z,1000.45
2019-04-04T05:00:59.498Z,1000.42
2019-04-04T05:01:59.551Z,1000.37
2019-04-04T05:02:59.443Z,1000.3
2019-04-04T05:04:02.897Z,1000.28
2019-04-04T05:05:00.178Z,1000.28
2019-04-04T05:06:03.475Z,1000.21
2019-04-04T05:06:59.234Z,1000.18
2019-04-04T05:07:59.309Z,1000.17
2019-04-04T05:08:59.280Z,1000.2
2019-04-04T05:09:59.353Z,1000.22
2019-04-04T05:10:59.273Z,1000.23
2019-04-04T05:11:59.303Z,1000.2
2019-04-04T05:12:59.414Z,1000.2
2019-04-04T05:13:59.521Z,1000.2
2019-04-04T05:15:02.396Z,1000.18
2019-04-04T05:15:59.331Z,1000.19
2019-04-04T05:16:59.376Z,1000.23
2019-04-04T05:17:59.334Z,1000.28
2019-04-04T05:18:59.551Z,1000.26
2019-04-04T05:19:59.378Z,1000.22
2019-04-04T05:21:02.757Z,1000.26
2019-04-04T05:21:59.535Z,1000.26
2019-04-04T05:22:59.216Z,1000.24
2019-04-04T05:23:59.320Z,1000.26
2019-04-04T05:25:09.207Z,1000.23
2019-04-04T05:26:03.433Z,1000.31
2019-04-04T05:26:59.269Z,1000.26
2019-04-04T05:27:59.302Z,1000.24
2019-04-04T05:28:59.289Z,1000.28
2019-04-04T05:29:59.285Z,1000.33
2019-04-04T05:30:59.308Z,1000.31
2019-04-04T05:31:59.320Z,1000.36
2019-04-04T05:32:59.397Z,1000.3
2019-04-04T05:33:59.896Z,1000.25
2019-04-04T05:35:02.246Z,1000.23
2019-04-04T05:35:59.363Z,1000.25
2019-04-04T05:36:59.423Z,1000.29
2019-04-04T05:37:59.520Z,1000.26
2019-04-04T05:38:59.478Z,1000.2
2019-04-04T05:39:59.422Z,1000.16
2019-04-04T05:40:59.287Z,1000.16
2019-04-04T05:42:01.377Z,1000.17
2019-04-04T05:42:59.213Z,1000.24
2019-04-04T05:43:59.181Z,1000.21
2019-04-04T05:44:59.201Z,1000.22
2019-04-04T05:45:59.253Z,1000.29
2019-04-04T05:47:00.112Z,1000.32
2019-04-04T05:48:00.112Z,1000.33
2019-04-04T05:49:08.335Z,1000.33
2019-04-04T05:49:59.240Z,1000.32
2019-04-04T05:50:59.280Z,1000.31
2019-04-04T05:51:59.317Z,1000.32
2019-04-04T05:52:59.324Z,1000.31
2019-04-04T05:53:59.503Z,1000.3
2019-04-04T05:54:59.450Z,1000.29
2019-04-04T05:56:00.507Z,1000.3
2019-04-04T05:56:59.388Z,1000.32
2019-04-04T05:57:59.417Z,1000.39
2019-04-04T05:58:59.146Z,1000.38
2019-04-04T05:59:59.195Z,1000.34
2019-04-04T06:01:02.754Z,1000.32
2019-04-04T06:01:59.197Z,1000.3
2019-04-04T06:02:59.215Z,1000.31
2019-04-04T06:03:59.267Z,1000.25
2019-04-04T06:04:59.281Z,1000.23
2019-04-04T06:06:02.147Z,1000.23
2019-04-04T06:06:59.309Z,1000.2
2019-04-04T06:07:59.373Z,1000.28
2019-04-04T06:08:59.507Z,1000.3
2019-04-04T06:09:59.326Z,1000.35
2019-04-04T06:10:59.356Z,1000.39
2019-04-04T06:11:59.430Z,1000.4
2019-04-04T06:12:59.368Z,1000.44
2019-04-04T06:13:59.875Z,1000.42
2019-04-04T06:15:01.296Z,1000.39
2019-04-04T06:15:59.439Z,1000.38
2019-04-04T06:16:59.130Z,1000.36
2019-04-04T06:17:59.137Z,1000.36
2019-04-04T06:18:59.186Z,1000.26
2019-04-04T06:19:59.159Z,1000.28
2019-04-04T06:20:59.189Z,1000.25
2019-04-04T06:21:59.210Z,1000.27
2019-04-04T06:22:59.355Z,1000.35
2019-04-04T06:23:59.207Z,1000.41
2019-04-04T06:25:00.133Z,1000.46
2019-04-04T06:25:59.275Z,1000.41
2019-04-04T06:26:59.262Z,1000.35
2019-04-04T06:27:59.413Z,1000.3
2019-04-04T06:28:59.492Z,1000.23
2019-04-04T06:29:59.400Z,1000.25
2019-04-04T06:31:01.030Z,1000.28
2019-04-04T06:32:01.106Z,1000.37
2019-04-04T06:32:59.437Z,1000.39
2019-04-04T06:33:59.413Z,1000.35
2019-04-04T06:34:59.181Z,1000.34
2019-04-04T06:35:59.197Z,1000.34
2019-04-04T06:36:59.218Z,1000.36
2019-04-04T06:37:59.199Z,1000.35
2019-04-04T06:38:59.293Z,1000.34
2019-04-04T06:39:59.749Z,1000.3
2019-04-04T06:41:01.683Z,1000.33
2019-04-04T06:41:59.261Z,1000.33
2019-04-04T06:42:59.271Z,1000.3
2019-04-04T06:43:59.275Z,1000.35
2019-04-04T06:44:59.355Z,1000.32
2019-04-04T06:45:59.375Z,1000.33
2019-04-04T06:47:02.339Z,1000.32
2019-04-04T06:47:59.330Z,1000.33
2019-04-04T06:48:59.454Z,1000.35
2019-04-04T06:49:59.418Z,1000.39
2019-04-04T06:50:59.383Z,1000.4
2019-04-04T06:51:59.386Z,1000.43
2019-04-04T06:53:00.141Z,1000.36
2019-04-04T06:53:59.856Z,1000.41
2019-04-04T06:54:59.181Z,1000.42
2019-04-04T06:56:01.176Z,1000.4
2019-04-04T06:57:04.575Z,1000.4
2019-04-04T06:57:59.283Z,1000.36
2019-04-04T06:58:59.199Z,1000.34
2019-04-04T06:59:59.280Z,1000.36
2019-04-04T07:00:59.257Z,1000.41
2019-04-04T07:01:59.259Z,1000.43
2019-04-04T07:02:59.263Z,1000.44
2019-04-04T07:04:00.414Z,1000.4
2019-04-04T07:04:59.264Z,1000.42
2019-04-04T07:05:59.358Z,1000.48
2019-04-04T07:06:59.330Z,1000.51
2019-04-04T07:07:59.319Z,1000.5
2019-04-04T07:08:59.341Z,1000.47
2019-04-04T07:09:59.379Z,1000.5
2019-04-04T07:11:11.203Z,1000.53
2019-04-04T07:11:59.194Z,1000.54
2019-04-04T07:13:23.254Z,1000.5
2019-04-04T07:13:59.992Z,1000.45
2019-04-04T07:14:59.227Z,1000.47
2019-04-04T07:16:08.335Z,1000.52
2019-04-04T07:16:59.734Z,1000.58
2019-04-04T07:17:59.275Z,1000.58
2019-04-04T07:18:59.329Z,1000.58
2019-04-04T07:19:59.272Z,1000.52
2019-04-04T07:20:59.372Z,1000.55
2019-04-04T07:21:59.378Z,1000.57
2019-04-04T07:22:59.316Z,1000.66
2019-04-04T07:24:00.198Z,1000.68
2019-04-04T07:25:06.472Z,1000.7
2019-04-04T07:25:59.382Z,1000.7
2019-04-04T07:26:59.388Z,1000.71
2019-04-04T07:27:59.504Z,1000.8
2019-04-04T07:28:59.164Z,1000.78
2019-04-04T07:29:59.145Z,1000.76
2019-04-04T07:31:02.565Z,1000.72
2019-04-04T07:31:59.177Z,1000.67
2019-04-04T07:32:59.177Z,1000.65
2019-04-04T07:33:59.368Z,1000.62
2019-04-04T07:34:59.363Z,1000.63
2019-04-04T07:35:59.541Z,1000.65
2019-04-04T07:36:59.240Z,1000.6
2019-04-04T07:37:59.345Z,1000.58
2019-04-04T07:39:01.180Z,1000.54
2019-04-04T07:40:04.675Z,1000.52
2019-04-04T07:40:59.286Z,1000.5
2019-04-04T07:41:59.316Z,1000.54
2019-04-04T07:42:59.321Z,1000.57
2019-04-04T07:43:59.316Z,1000.61
2019-04-04T07:44:59.209Z,1000.6
2019-04-04T07:46:16.967Z,1000.61
2019-04-04T07:46:59.249Z,1000.57
2019-04-04T07:47:59.259Z,1000.54
2019-04-04T07:48:59.279Z,1000.57
2019-04-04T07:49:59.178Z,1000.57
2019-04-04T07:50:59.441Z,1000.55
2019-04-04T07:52:02.398Z,1000.53
2019-04-04T07:52:59.245Z,1000.5
2019-04-04T07:53:59.290Z,1000.47
2019-04-04T07:54:59.392Z,1000.45
2019-04-04T07:55:59.571Z,1000.43
2019-04-04T07:56:59.429Z,1000.46
2019-04-04T07:57:59.316Z,1000.49
2019-04-04T07:58:59.367Z,1000.46
2019-04-04T07:59:59.337Z,1000.47
2019-04-04T08:00:59.359Z,1000.42
2019-04-04T08:01:59.447Z,1000.4
2019-04-04T08:02:59.407Z,1000.39
2019-04-04T08:03:59.160Z,1000.38
2019-04-04T08:04:59.093Z,1000.38
2019-04-04T08:05:59.132Z,1000.39
2019-04-04T08:06:59.286Z,1000.37
2019-04-04T08:07:59.158Z,1000.39
2019-04-04T08:08:59.209Z,1000.4
2019-04-04T08:09:59.159Z,1000.45
2019-04-04T08:10:59.178Z,1000.4
2019-04-04T08:11:59.372Z,1000.4
2019-04-04T08:12:59.241Z,1000.43
2019-04-04T08:13:59.384Z,1000.48
2019-04-04T08:14:59.243Z,1000.48
2019-04-04T08:15:59.270Z,1000.45
2019-04-04T08:16:59.300Z,1000.44
2019-04-04T08:17:59.410Z,1000.43
2019-04-04T08:18:59.334Z,1000.47
2019-04-04T08:20:00.289Z,1000.48
2019-04-04T08:20:59.456Z,1000.51
2019-04-04T08:21:59.449Z,1000.52
2019-04-04T08:22:59.137Z,1000.5
2019-04-04T08:23:59.141Z,1000.53
2019-04-04T08:24:59.208Z,1000.49
2019-04-04T08:25:59.237Z,1000.49
2019-04-04T08:26:59.241Z,1000.47
2019-04-04T08:27:59.227Z,1000.53
2019-04-04T08:28:59.199Z,1000.49
2019-04-04T08:29:59.330Z,1000.4
2019-04-04T08:30:59.348Z,1000.41
2019-04-04T08:31:59.243Z,1000.36
2019-04-04T08:32:59.283Z,1000.4
2019-04-04T08:33:59.400Z,1000.35
2019-04-04T08:34:59.284Z,1000.31
2019-04-04T08:36:06.807Z,1000.33
2019-04-04T08:36:59.462Z,1000.34
2019-04-04T08:37:59.353Z,1000.4
2019-04-04T08:38:59.093Z,1000.39
2019-04-04T08:39:59.285Z,1000.36
2019-04-04T08:40:59.333Z,1000.36
2019-04-04T08:41:59.231Z,1000.41
2019-04-04T08:42:59.155Z,1000.42
2019-04-04T08:43:59.321Z,1000.39
2019-04-04T08:44:59.199Z,1000.4
2019-04-04T08:45:59.215Z,1000.39
2019-04-04T08:46:59.211Z,1000.46
2019-04-04T08:47:59.216Z,1000.46
2019-04-04T08:48:59.115Z,1000.55
2019-04-04T08:49:59.252Z,1000.58
2019-04-04T08:50:59.299Z,1000.64
2019-04-04T08:51:59.270Z,1000.64
2019-04-04T08:52:59.262Z,1000.7
2019-04-04T08:53:59.312Z,1000.7
2019-04-04T08:54:59.328Z,1000.7
2019-04-04T08:55:59.144Z,1000.74
2019-04-04T08:56:59.128Z,1000.75
2019-04-04T08:57:59.157Z,1000.73
2019-04-04T08:58:59.226Z,1000.69
2019-04-04T08:59:59.237Z,1000.65
2019-04-04T09:00:59.190Z,1000.59
2019-04-04T09:01:59.525Z,1000.6
2019-04-04T09:02:59.335Z,1000.58
2019-04-04T09:03:59.228Z,1000.54
2019-04-04T09:05:12.872Z,1000.56
2019-04-04T09:05:59.271Z,1000.53
2019-04-04T09:06:59.335Z,1000.5
2019-04-04T09:07:59.309Z,1000.42
2019-04-04T09:08:59.265Z,1000.38
2019-04-04T09:09:59.343Z,1000.28
2019-04-04T09:10:59.412Z,1000.27
2019-04-04T09:11:59.286Z,1000.22
2019-04-04T09:12:59.360Z,1000.21
2019-04-04T09:13:59.071Z,1000.17
2019-04-04T09:14:59.086Z,1000.18
2019-04-04T09:15:59.166Z,1000.16
2019-04-04T09:16:59.115Z,1000.16
2019-04-04T09:17:59.142Z,1000.17
2019-04-04T09:18:59.161Z,1000.17
2019-04-04T09:19:59.140Z,1000.12
2019-04-04T09:20:59.201Z,1000.06
2019-04-04T09:21:59.360Z,1000.02
2019-04-04T09:22:59.276Z,1000.05
2019-04-04T09:24:01.042Z,1000.05
2019-04-04T09:24:59.242Z,1000.09
2019-04-04T09:26:06.526Z,1000.11
2019-04-04T09:26:59.275Z,1000.24
2019-04-04T09:27:59.267Z,1000.29
2019-04-04T09:28:59.275Z,1000.32
2019-04-04T09:29:59.287Z,1000.34
2019-04-04T09:30:59.090Z,1000.37
2019-04-04T09:31:59.123Z,1000.38
2019-04-04T09:32:59.222Z,1000.34
2019-04-04T09:33:59.161Z,1000.28
2019-04-04T09:34:59.182Z,1000.25
2019-04-04T09:35:59.129Z,1000.26
2019-04-04T09:36:59.194Z,1000.3
2019-04-04T09:37:59.186Z,1000.35
2019-04-04T09:38:59.277Z,1000.46
2019-04-04T09:39:59.287Z,1000.56
2019-04-04T09:40:59.298Z,1000.64
2019-04-04T09:41:59.321Z,1000.66
2019-04-04T09:42:59.290Z,1000.71
2019-04-04T09:43:59.250Z,1000.72
2019-04-04T09:44:59.535Z,1000.7
2019-04-04T09:45:59.408Z,1000.67
2019-04-04T09:47:06.035Z,1000.64
2019-04-04T09:47:59.307Z,1000.62
2019-04-04T09:48:59.347Z,1000.62
2019-04-04T09:49:59.081Z,1000.64
2019-04-04T09:50:59.239Z,1000.71
2019-04-04T09:51:59.067Z,1000.75
2019-04-04T09:52:59.134Z,1000.83
2019-04-04T09:53:59.108Z,1000.81
2019-04-04T09:54:59.215Z,1000.89
2019-04-04T09:55:59.144Z,1000.92
2019-04-04T09:56:59.154Z,1000.91
2019-04-04T09:57:59.186Z,1000.91
2019-04-04T09:58:59.167Z,1000.86
2019-04-04T09:59:59.252Z,1000.73
2019-04-04T10:00:59.262Z,1000.73
2019-04-04T10:01:59.402Z,1000.73
2019-04-04T10:02:59.221Z,1000.85
2019-04-04T10:03:59.253Z,1000.94
2019-04-04T10:04:59.264Z,1001.03
2019-04-04T10:05:59.258Z,1001.03
2019-04-04T10:06:59.316Z,1001.12
2019-04-04T10:07:59.501Z,1001.13
2019-04-04T10:08:59.113Z,1001.17
2019-04-04T10:09:59.128Z,1001.14
2019-04-04T10:10:59.131Z,1001.16
2019-04-04T10:11:59.139Z,1001.16
2019-04-04T10:12:59.182Z,1001.15
2019-04-04T10:13:59.268Z,1001.13
2019-04-04T10:14:59.200Z,1001.1
2019-04-04T10:15:59.260Z,1001.03
2019-04-04T10:16:59.181Z,1001.03
2019-04-04T10:17:59.221Z,1001.04
2019-04-04T10:18:59.249Z,1001.05
2019-04-04T10:19:59.222Z,1001.13
2019-04-04T10:21:12.735Z,1001.17
2019-04-04T10:21:59.302Z,1001.17
2019-04-04T10:22:59.258Z,1001.19
2019-04-04T10:23:59.702Z,1001.15
2019-04-04T10:24:59.374Z,1001.17
2019-04-04T10:25:59.509Z,1001.18
2019-04-04T10:26:59.224Z,1001.19
2019-04-04T10:27:59.063Z,1001.16
2019-04-04T10:28:59.090Z,1001.16
2019-04-04T10:29:59.295Z,1001.16
2019-04-04T10:30:59.260Z,1001.16
2019-04-04T10:31:59.116Z,1001.13
2019-04-04T10:32:59.232Z,1001.14
2019-04-04T10:33:59.064Z,1001.11
2019-04-04T10:34:59.162Z,1001.1
2019-04-04T10:35:59.180Z,1001.1
2019-04-04T10:36:59.224Z,1001.09
2019-04-04T10:37:59.183Z,1001.09
2019-04-04T10:38:59.227Z,1001.06
2019-04-04T10:39:59.256Z,1001.04
2019-04-04T10:40:59.224Z,1001.02
2019-04-04T10:41:59.238Z,1001.02
2019-04-04T10:42:59.281Z,1001.05
2019-04-04T10:43:59.371Z,1001.06
2019-04-04T10:44:59.121Z,1001.08
2019-04-04T10:45:59.111Z,1001.11
2019-04-04T10:46:59.119Z,1001.06
2019-04-04T10:47:59.110Z,1001.04
2019-04-04T10:48:59.207Z,1001.05
2019-04-04T10:49:59.170Z,1001.03
2019-04-04T10:50:59.160Z,1001.06
2019-04-04T10:51:59.255Z,1001.12
2019-04-04T10:52:59.189Z,1001.16
2019-04-04T10:53:59.202Z,1001.21
2019-04-04T10:55:02.163Z,1001.16
2019-04-04T10:55:59.350Z,1001.11
2019-04-04T10:56:59.307Z,1001.14
2019-04-04T10:57:59.254Z,1001.09
2019-04-04T10:58:59.261Z,1001.05
2019-04-04T10:59:59.390Z,1001.02
2019-04-04T11:00:59.425Z,1001.07
2019-04-04T11:02:01.155Z,1001.05
2019-04-04T11:02:59.021Z,1001.06
2019-04-04T11:03:59.231Z,1001.05
2019-04-04T11:04:59.063Z,1001.06
2019-04-04T11:05:59.094Z,1001.05
2019-04-04T11:06:59.132Z,1001.09
2019-04-04T11:07:59.273Z,1001.13
2019-04-04T11:08:59.107Z,1001.17
2019-04-04T11:09:59.264Z,1001.16
2019-04-04T11:10:59.314Z,1001.17
2019-04-04T11:11:59.148Z,1001.17
2019-04-04T11:12:59.262Z,1001.14
2019-04-04T11:13:59.202Z,1001.15
2019-04-04T11:14:59.194Z,1001.15
2019-04-04T11:15:59.224Z,1001.14
2019-04-04T11:16:59.211Z,1001.13
2019-04-04T11:17:59.298Z,1001.15
2019-04-04T11:18:59.291Z,1001.18
2019-04-04T11:19:59.256Z,1001.15
2019-04-04T11:20:59.054Z,1001.12
2019-04-04T11:21:59.123Z,1001.1
2019-04-04T11:22:59.110Z,1001.08
2019-04-04T11:23:59.459Z,1001.09
2019-04-04T11:24:59.122Z,1001.07
2019-04-04T11:25:59.134Z,1001.07
2019-04-04T11:26:59.148Z,1001.09
2019-04-04T11:27:59.157Z,1001.14
2019-04-04T11:28:59.214Z,1001.15
2019-04-04T11:29:59.182Z,1001.11
2019-04-04T11:30:59.198Z,1001.08
2019-04-04T11:31:59.241Z,1001.08
2019-04-04T11:32:59.365Z,1001.05
2019-04-04T11:33:59.299Z,1001.01
2019-04-04T11:34:59.307Z,1001.04
2019-04-04T11:35:59.278Z,1001.03
2019-04-04T11:36:59.274Z,1001.01
2019-04-04T11:37:59.285Z,1001.05
2019-04-04T11:38:59.037Z,1001.04
2019-04-04T11:39:59.087Z,1001.09
2019-04-04T11:40:59.219Z,1001.17
2019-04-04T11:41:59.169Z,1001.27
2019-04-04T11:42:59.097Z,1001.36
2019-04-04T11:43:59.177Z,1001.47
2019-04-04T11:44:59.085Z,1001.55
2019-04-04T11:45:59.122Z,1001.61
2019-04-04T11:46:59.161Z,1001.62
2019-04-04T11:47:59.138Z,1001.6
2019-04-04T11:48:59.265Z,1001.58
2019-04-04T11:49:59.150Z,1001.61
2019-04-04T11:50:59.199Z,1001.57
2019-04-04T11:51:59.366Z,1001.54
2019-04-04T11:52:59.184Z,1001.55
2019-04-04T11:53:59.245Z,1001.58
2019-04-04T11:54:59.323Z,1001.54
2019-04-04T11:55:59.292Z,1001.57
2019-04-04T11:56:59.450Z,1001.61
2019-04-04T11:57:59.067Z,1001.64
2019-04-04T11:58:59.076Z,1001.66
2019-04-04T11:59:59.094Z,1001.62
2019-04-04T12:00:59.117Z,1001.59
2019-04-04T12:01:59.196Z,1001.63
2019-04-04T12:02:59.108Z,1001.61
2019-04-04T12:03:59.146Z,1001.65
2019-04-04T12:04:59.195Z,1001.64
2019-04-04T12:05:59.191Z,1001.66
2019-04-04T12:06:59.210Z,1001.69
2019-04-04T12:07:59.216Z,1001.69
2019-04-04T12:08:59.287Z,1001.77